createdAt,value
2023-02-23T00:01:19.478Z,11.47
2023-02-23T00:03:46.670Z,11.59
2023-02-23T00:06:13.819Z,11.74
2023-02-23T00:08:40.648Z,11.37
2023-02-23T00:11:09.400Z,11.35
2023-02-23T00:13:37.704Z,11.82
2023-02-23T00:16:12.830Z,11.85
2023-02-23T00:18:45.824Z,11.88
2023-02-23T00:21:15.475Z,11.57
2023-02-23T00:24:09.438Z,11.79
2023-02-23T00:26:37.771Z,11.48
2023-02-23T00:29:06.958Z,11.62
2023-02-23T00:31:34.287Z,11.94
2023-02-23T00:34:02.699Z,11.91
2023-02-23T00:36:32.294Z,11.84
2023-02-23T00:39:00.732Z,11.81
2023-02-23T00:41:30.490Z,11.76
2023-02-23T00:43:58.305Z,11.75
2023-02-23T00:46:30.011Z,11.40
2023-02-23T00:48:58.270Z,11.46
2023-02-23T00:51:32.261Z,11.58
2023-02-23T00:54:00.121Z,11.53
2023-02-23T00:56:27.989Z,11.33
2023-02-23T00:58:55.184Z,11.49
2023-02-23T01:01:22.366Z,11.37
2023-02-23T01:03:49.189Z,11.41
2023-02-23T01:06:16.780Z,11.46
2023-02-23T01:08:45.324Z,11.17
2023-02-23T01:11:13.766Z,11.39
2023-02-23T01:13:41.629Z,10.93
2023-02-23T01:16:09.974Z,10.87
2023-02-23T01:18:37.184Z,11.07
2023-02-23T01:21:05.590Z,11.25
2023-02-23T01:23:32.719Z,10.73
2023-02-23T01:25:59.626Z,11.01
2023-02-23T01:28:26.460Z,10.98
2023-02-23T01:30:53.446Z,10.99
2023-02-23T01:33:20.377Z,11.12
2023-02-23T01:35:57.930Z,11.08
2023-02-23T01:38:24.668Z,11.07
2023-02-23T01:40:51.428Z,11.09
2023-02-23T01:43:26.114Z,11.12
2023-02-23T01:45:55.312Z,10.82
2023-02-23T01:48:23.596Z,11.17
2023-02-23T01:51:03.814Z,10.93
2023-02-23T01:53:34.121Z,10.89
2023-02-23T01:56:04.058Z,11.14
2023-02-23T01:58:30.805Z,11.11
2023-02-23T02:00:58.727Z,10.70
2023-02-23T02:03:44.351Z,11.09
2023-02-23T02:06:14.293Z,11.09
2023-02-23T02:08:45.646Z,11.08
2023-02-23T02:11:26.153Z,11.08
2023-02-23T02:13:54.388Z,10.98
2023-02-23T02:16:48.011Z,11.13
2023-02-23T02:19:27.009Z,11.12
2023-02-23T02:22:31.057Z,11.09
2023-02-23T02:25:13.207Z,11.05
2023-02-23T02:28:08.920Z,11.00
2023-02-23T02:31:08.613Z,10.94
2023-02-23T02:34:03.364Z,10.93
2023-02-23T02:36:52.867Z,10.83
2023-02-23T02:39:24.522Z,10.52
2023-02-23T02:42:21.787Z,10.73
2023-02-23T02:45:07.941Z,10.71
2023-02-23T02:47:54.525Z,10.42
2023-02-23T02:50:31.510Z,10.60
2023-02-23T02:53:11.661Z,10.32
2023-02-23T02:55:41.500Z,10.36
2023-02-23T02:58:08.309Z,10.15
2023-02-23T03:00:59.615Z,10.43
2023-02-23T03:03:59.008Z,10.11
2023-02-23T03:06:50.034Z,10.16
2023-02-23T03:09:35.270Z,10.36
2023-02-23T03:12:49.805Z,10.35
2023-02-23T03:15:40.936Z,10.31
2023-02-23T03:18:49.815Z,10.14
2023-02-23T03:21:38.172Z,10.07
2023-02-23T03:24:55.586Z,10.26
2023-02-23T03:28:04.357Z,10.22
2023-02-23T03:31:19.185Z,10.22
2023-02-23T03:34:19.220Z,10.18
2023-02-23T03:37:05.938Z,10.10
2023-02-23T03:39:57.385Z,9.82
2023-02-23T03:42:45.305Z,10.03
2023-02-23T03:45:32.682Z,9.80
2023-02-23T03:48:18.008Z,9.69
2023-02-23T03:51:09.613Z,9.66
2023-02-23T03:54:02.899Z,9.86
2023-02-23T03:56:48.356Z,9.85
2023-02-23T03:59:33.718Z,9.64
2023-02-23T04:02:19.010Z,9.81
2023-02-23T04:05:04.409Z,9.60
2023-02-23T04:07:49.628Z,9.58
2023-02-23T04:10:35.542Z,9.58
2023-02-23T04:13:25.327Z,9.70
2023-02-23T04:16:01.917Z,9.69
2023-02-23T04:18:36.613Z,9.69
2023-02-23T04:21:04.212Z,9.51
2023-02-23T04:23:31.261Z,9.66
2023-02-23T04:25:58.105Z,9.48
2023-02-23T04:28:25.834Z,9.63
2023-02-23T04:30:53.013Z,9.51
2023-02-23T04:33:21.737Z,9.44
2023-02-23T04:35:49.103Z,9.15
2023-02-23T04:38:15.834Z,9.31
2023-02-23T04:40:42.692Z,9.55
2023-02-23T04:43:12.142Z,9.27
2023-02-23T04:45:38.964Z,9.49
2023-02-23T04:48:06.078Z,9.30
2023-02-23T04:50:32.962Z,9.41
2023-02-23T04:52:59.978Z,9.32
2023-02-23T04:55:26.909Z,9.41
2023-02-23T04:57:58.204Z,9.16
2023-02-23T05:00:25.106Z,9.09
2023-02-23T05:02:51.910Z,9.43
2023-02-23T05:05:19.103Z,9.36
2023-02-23T05:07:45.955Z,9.46
2023-02-23T05:10:12.743Z,9.32
2023-02-23T05:12:39.688Z,9.56
2023-02-23T05:15:07.118Z,9.14
2023-02-23T05:17:33.952Z,9.57
2023-02-23T05:20:00.850Z,9.39
2023-02-23T05:22:27.660Z,9.63
2023-02-23T05:24:57.135Z,9.61
2023-02-23T05:27:24.350Z,9.58
2023-02-23T05:29:51.065Z,9.52
2023-02-23T05:32:18.266Z,9.30
2023-02-23T05:34:45.281Z,9.48
2023-02-23T05:37:12.099Z,9.09
2023-02-23T05:39:39.334Z,9.21
2023-02-23T05:42:06.320Z,9.15
2023-02-23T05:44:33.181Z,9.34
2023-02-23T05:47:00.177Z,9.04
2023-02-23T05:49:27.022Z,9.33
2023-02-23T05:51:53.754Z,9.04
2023-02-23T05:54:20.495Z,9.15
2023-02-23T05:56:47.441Z,8.94
2023-02-23T05:59:14.366Z,9.21
2023-02-23T06:01:41.698Z,9.16
2023-02-23T06:04:08.646Z,9.10
2023-02-23T06:06:35.539Z,8.92
2023-02-23T06:09:03.761Z,8.73
2023-02-23T06:11:31.265Z,8.90
2023-02-23T06:13:59.541Z,8.99
2023-02-23T06:16:27.456Z,9.07
2023-02-23T06:18:54.406Z,9.04
2023-02-23T06:21:21.568Z,9.04
2023-02-23T06:23:48.333Z,9.07
2023-02-23T06:26:15.143Z,9.08
2023-02-23T06:28:41.931Z,9.06
2023-02-23T06:31:08.830Z,9.08
2023-02-23T06:33:35.821Z,9.07
2023-02-23T06:36:02.574Z,8.94
2023-02-23T06:38:29.450Z,8.70
2023-02-23T06:40:56.377Z,8.61
2023-02-23T06:43:23.505Z,8.98
2023-02-23T06:45:50.512Z,8.70
2023-02-23T06:48:17.911Z,8.67
2023-02-23T06:50:44.713Z,8.80
2023-02-23T06:53:11.421Z,8.89
2023-02-23T06:55:38.412Z,8.82
2023-02-23T06:58:06.663Z,8.61
2023-02-23T07:00:33.590Z,8.87
2023-02-23T07:03:00.555Z,8.39
2023-02-23T07:05:27.443Z,8.81
2023-02-23T07:07:54.312Z,8.76
2023-02-23T07:10:21.216Z,8.72
2023-02-23T07:12:48.062Z,8.58
2023-02-23T07:15:17.810Z,8.63
2023-02-23T07:17:45.359Z,7.86
2023-02-23T07:20:12.781Z,8.17
2023-02-23T07:22:40.084Z,8.36
2023-02-23T07:25:08.854Z,8.37
2023-02-23T07:27:36.095Z,8.18
2023-02-23T07:30:03.187Z,8.35
2023-02-23T07:32:30.424Z,8.13
2023-02-23T07:34:57.239Z,8.06
2023-02-23T07:37:23.966Z,8.26
2023-02-23T07:39:50.781Z,8.00
2023-02-23T07:42:17.578Z,8.50
2023-02-23T07:44:44.851Z,8.44
2023-02-23T07:47:11.763Z,8.32
2023-02-23T07:49:38.655Z,8.69
2023-02-23T07:52:05.526Z,8.83
2023-02-23T07:54:32.278Z,8.91
2023-02-23T07:56:59.627Z,8.74
2023-02-23T07:59:26.436Z,9.32
2023-02-23T08:01:53.287Z,9.23
2023-02-23T08:04:20.293Z,9.66
2023-02-23T08:06:47.080Z,9.96
2023-02-23T08:09:14.126Z,10.02
2023-02-23T08:11:41.050Z,10.28
2023-02-23T08:14:07.809Z,10.44
2023-02-23T08:16:34.699Z,10.62
2023-02-23T08:19:01.771Z,10.56
2023-02-23T08:21:29.713Z,11.07
2023-02-23T08:23:57.973Z,10.91
2023-02-23T08:26:25.727Z,11.53
2023-02-23T08:28:53.595Z,11.54
2023-02-23T08:31:24.450Z,12.00
2023-02-23T08:33:52.125Z,12.22
2023-02-23T08:36:18.991Z,12.79
2023-02-23T08:38:45.731Z,13.07
2023-02-23T08:41:12.636Z,13.33
2023-02-23T08:43:39.431Z,13.74
2023-02-23T08:46:07.009Z,14.18
2023-02-23T08:48:34.188Z,14.30
2023-02-23T08:51:01.055Z,13.57
2023-02-23T08:53:29.937Z,14.49
2023-02-23T08:56:00.964Z,14.58
2023-02-23T08:58:28.533Z,15.02
2023-02-23T09:00:55.374Z,15.04
2023-02-23T09:03:22.575Z,14.99
2023-02-23T09:05:49.949Z,15.56
2023-02-23T09:08:16.743Z,15.91
2023-02-23T09:10:46.377Z,16.17
2023-02-23T09:13:13.338Z,16.36
2023-02-23T09:15:40.433Z,16.42
2023-02-23T09:18:07.912Z,16.61
2023-02-23T09:20:34.842Z,17.00
2023-02-23T09:23:01.676Z,17.31
2023-02-23T09:25:29.572Z,16.87
2023-02-23T09:28:00.189Z,17.42
2023-02-23T09:30:27.097Z,17.66
2023-02-23T09:32:54.893Z,17.17
2023-02-23T09:35:22.765Z,17.62
2023-02-23T09:37:53.733Z,17.83
2023-02-23T09:40:28.356Z,17.91
2023-02-23T09:43:01.211Z,18.07
2023-02-23T09:45:55.121Z,17.91
2023-02-23T09:48:23.758Z,18.05
2023-02-23T09:50:52.347Z,18.14
2023-02-23T09:53:50.647Z,18.00
2023-02-23T09:56:40.285Z,18.73
2023-02-23T09:59:10.567Z,18.94
2023-02-23T10:01:46.612Z,19.24
2023-02-23T10:04:50.256Z,19.16
2023-02-23T10:07:32.173Z,19.37
2023-02-23T10:10:23.221Z,19.48
2023-02-23T10:13:01.519Z,19.57
2023-02-23T10:15:40.413Z,19.57
2023-02-23T10:18:10.654Z,19.97
2023-02-23T10:20:43.846Z,20.17
2023-02-23T10:23:18.322Z,19.88
2023-02-23T10:25:48.993Z,20.35
2023-02-23T10:28:17.163Z,20.26
2023-02-23T10:30:44.132Z,19.99
2023-02-23T10:33:21.357Z,20.17
2023-02-23T10:35:48.142Z,20.21
2023-02-23T10:38:17.485Z,20.34
2023-02-23T10:40:50.421Z,20.65
2023-02-23T10:43:17.173Z,20.80
2023-02-23T10:45:46.354Z,20.96
2023-02-23T10:48:22.196Z,20.54
2023-02-23T10:50:49.577Z,21.12
2023-02-23T10:53:24.234Z,21.36
2023-02-23T10:56:11.004Z,20.96
2023-02-23T10:58:41.521Z,21.45
2023-02-23T11:01:08.904Z,21.32
2023-02-23T11:03:39.199Z,21.53
2023-02-23T11:06:07.293Z,18.91
2023-02-23T11:08:36.306Z,21.67
2023-02-23T11:11:15.722Z,21.84
2023-02-23T11:13:44.886Z,21.92
2023-02-23T11:16:16.524Z,22.22
2023-02-23T11:19:14.056Z,22.56
2023-02-23T11:21:41.573Z,22.79
2023-02-23T11:24:30.969Z,22.97
2023-02-23T11:27:00.599Z,22.97
2023-02-23T11:29:36.628Z,23.24
2023-02-23T11:32:14.431Z,22.93
2023-02-23T11:34:41.401Z,23.09
2023-02-23T11:37:15.355Z,22.91
2023-02-23T11:40:03.146Z,22.90
2023-02-23T11:42:33.610Z,22.26
2023-02-23T11:45:17.073Z,22.24
2023-02-23T11:47:49.705Z,22.99
2023-02-23T11:50:30.746Z,23.12
2023-02-23T11:53:04.011Z,22.97
2023-02-23T11:55:31.586Z,23.34
2023-02-23T11:58:29.943Z,23.13
2023-02-23T12:01:01.103Z,23.14
2023-02-23T12:03:29.279Z,23.04
2023-02-23T12:05:57.902Z,22.78
2023-02-23T12:08:45.746Z,23.14
2023-02-23T12:11:18.634Z,23.21
2023-02-23T12:14:00.958Z,23.16
2023-02-23T12:16:31.247Z,23.70
2023-02-23T12:19:29.352Z,24.10
2023-02-23T12:21:58.687Z,24.94
2023-02-23T12:24:34.782Z,24.99
2023-02-23T12:27:06.516Z,24.30
2023-02-23T12:30:09.412Z,23.54
2023-02-23T12:32:56.468Z,22.76
2023-02-23T12:35:33.935Z,22.94
2023-02-23T12:38:01.467Z,23.54
2023-02-23T12:40:30.347Z,22.84
2023-02-23T12:43:09.239Z,22.53
2023-02-23T12:45:49.352Z,22.42
2023-02-23T12:48:25.805Z,22.66
2023-02-23T12:50:53.995Z,23.06
2023-02-23T12:53:29.505Z,23.62
2023-02-23T12:56:15.107Z,23.13
2023-02-23T12:58:56.952Z,22.93
2023-02-23T13:01:36.480Z,23.19
2023-02-23T13:04:09.502Z,23.57
2023-02-23T13:06:41.824Z,23.60
2023-02-23T13:09:44.249Z,24.54
2023-02-23T13:12:18.073Z,23.99
2023-02-23T13:14:48.472Z,24.34
2023-02-23T13:17:28.031Z,24.71
2023-02-23T13:19:58.941Z,24.67
2023-02-23T13:22:25.811Z,24.16
2023-02-23T13:24:52.763Z,23.39
2023-02-23T13:27:25.629Z,23.20
2023-02-23T13:29:55.443Z,23.33
2023-02-23T13:32:24.393Z,23.70
2023-02-23T13:35:00.866Z,23.95
2023-02-23T13:37:35.120Z,24.01
2023-02-23T13:40:36.824Z,23.11
2023-02-23T13:43:30.005Z,22.05
2023-02-23T13:46:37.534Z,21.10
2023-02-23T13:49:10.739Z,20.21
2023-02-23T13:51:38.361Z,19.33
2023-02-23T13:54:06.294Z,18.87
2023-02-23T13:56:38.458Z,18.66
2023-02-23T13:59:08.467Z,18.18
2023-02-23T14:01:40.013Z,17.28
2023-02-23T14:04:37.339Z,17.23
2023-02-23T14:07:05.652Z,17.08
2023-02-23T14:09:36.923Z,17.09
2023-02-23T14:12:42.845Z,17.02
2023-02-23T14:15:28.262Z,16.83
2023-02-23T14:17:59.503Z,16.24
2023-02-23T14:20:38.555Z,16.46
2023-02-23T14:23:12.200Z,16.38
2023-02-23T14:25:38.974Z,16.24
2023-02-23T14:28:22.765Z,15.78
2023-02-23T14:30:59.422Z,15.52
2023-02-23T14:33:42.904Z,15.66
2023-02-23T14:36:21.689Z,15.58
2023-02-23T14:38:58.004Z,15.52
2023-02-23T14:41:30.330Z,15.24
2023-02-23T14:44:29.502Z,15.37
2023-02-23T14:47:23.929Z,15.33
2023-02-23T14:49:58.945Z,14.78
2023-02-23T14:52:35.974Z,15.33
2023-02-23T14:55:09.071Z,15.34
2023-02-23T14:57:36.262Z,15.03
2023-02-23T15:00:13.136Z,15.20
2023-02-23T15:02:53.621Z,14.97
2023-02-23T15:05:23.148Z,15.06
2023-02-23T15:07:51.996Z,14.97
2023-02-23T15:10:23.096Z,14.93
2023-02-23T15:12:50.736Z,14.92
2023-02-23T15:15:19.348Z,14.72
2023-02-23T15:17:47.400Z,14.76
2023-02-23T15:20:17.546Z,14.16
2023-02-23T15:22:47.006Z,13.65
2023-02-23T15:25:16.488Z,14.74
2023-02-23T15:27:45.441Z,14.66
2023-02-23T15:30:31.217Z,14.57
2023-02-23T15:33:11.471Z,14.63
2023-02-23T15:35:47.627Z,14.58
2023-02-23T15:38:42.331Z,14.35
2023-02-23T15:41:15.407Z,13.93
2023-02-23T15:43:42.718Z,14.23
2023-02-23T15:46:09.636Z,14.15
2023-02-23T15:48:47.206Z,14.10
2023-02-23T15:51:25.045Z,14.43
2023-02-23T15:53:52.272Z,14.07
2023-02-23T15:56:30.354Z,13.68
2023-02-23T15:58:59.158Z,14.17
2023-02-23T16:01:30.423Z,14.03
2023-02-23T16:03:57.159Z,13.97
2023-02-23T16:06:25.263Z,13.95
2023-02-23T16:09:06.020Z,13.91
2023-02-23T16:11:36.183Z,13.80
2023-02-23T16:14:05.577Z,13.62
2023-02-23T16:16:34.771Z,13.64
2023-02-23T16:19:01.711Z,13.89
2023-02-23T16:21:31.839Z,13.93
2023-02-23T16:24:02.138Z,13.75
2023-02-23T16:26:34.555Z,13.71
2023-02-23T16:29:02.392Z,12.74
2023-02-23T16:31:44.275Z,13.10
2023-02-23T16:34:25.429Z,13.50
2023-02-23T16:36:56.496Z,13.79
2023-02-23T16:39:29.554Z,13.87
2023-02-23T16:41:59.835Z,13.57
2023-02-23T16:44:34.297Z,13.42
2023-02-23T16:47:08.459Z,13.85
2023-02-23T16:49:35.262Z,13.68
2023-02-23T16:52:02.282Z,13.47
2023-02-23T16:54:29.222Z,13.56
2023-02-23T16:56:56.537Z,13.26
2023-02-23T16:59:23.415Z,13.26
2023-02-23T17:01:51.114Z,13.48
2023-02-23T17:04:19.108Z,13.28
2023-02-23T17:06:47.565Z,13.16
2023-02-23T17:09:14.492Z,12.67
2023-02-23T17:11:41.381Z,13.07
2023-02-23T17:14:08.317Z,13.21
2023-02-23T17:16:35.220Z,12.60
2023-02-23T17:19:02.433Z,12.36
2023-02-23T17:21:29.452Z,12.89
2023-02-23T17:24:02.991Z,13.17
2023-02-23T17:26:29.733Z,12.98
2023-02-23T17:28:56.620Z,12.96
2023-02-23T17:31:25.783Z,12.92
2023-02-23T17:33:55.435Z,13.07
2023-02-23T17:36:24.026Z,12.84
2023-02-23T17:38:50.896Z,12.87
2023-02-23T17:41:19.385Z,12.85
2023-02-23T17:43:46.575Z,13.01
2023-02-23T17:46:13.625Z,12.52
2023-02-23T17:48:44.667Z,12.66
2023-02-23T17:51:13.030Z,12.62
2023-02-23T17:53:39.877Z,12.63
2023-02-23T17:56:07.000Z,12.83
2023-02-23T17:58:34.001Z,12.71
2023-02-23T18:01:03.201Z,12.18
2023-02-23T18:03:34.702Z,12.74
2023-02-23T18:06:06.966Z,12.57
2023-02-23T18:08:33.834Z,12.44
2023-02-23T18:11:00.772Z,12.35
2023-02-23T18:13:28.507Z,11.82
2023-02-23T18:16:08.389Z,11.98
2023-02-23T18:18:36.471Z,12.28
2023-02-23T18:21:03.368Z,11.68
2023-02-23T18:23:32.983Z,12.09
2023-02-23T18:26:10.553Z,11.82
2023-02-23T18:28:38.773Z,11.71
2023-02-23T18:31:05.787Z,11.61
2023-02-23T18:33:35.938Z,10.92
2023-02-23T18:36:04.163Z,11.20
2023-02-23T18:38:30.909Z,11.68
2023-02-23T18:40:58.540Z,11.41
2023-02-23T18:43:25.550Z,11.40
2023-02-23T18:45:52.481Z,11.43
2023-02-23T18:48:19.371Z,10.98
2023-02-23T18:50:46.259Z,11.47
2023-02-23T18:53:13.011Z,11.25
2023-02-23T18:55:41.099Z,10.67
2023-02-23T18:58:08.048Z,11.06
2023-02-23T19:00:40.274Z,11.01
2023-02-23T19:03:07.492Z,10.91
2023-02-23T19:05:36.383Z,11.19
2023-02-23T19:08:13.577Z,11.10
2023-02-23T19:10:40.840Z,11.11
2023-02-23T19:13:09.070Z,11.29
2023-02-23T19:15:35.980Z,11.06
2023-02-23T19:18:03.496Z,11.25
2023-02-23T19:20:35.799Z,11.24
2023-02-23T19:23:05.961Z,11.21
2023-02-23T19:25:33.010Z,11.14
2023-02-23T19:27:59.798Z,11.25
2023-02-23T19:30:27.175Z,10.97
2023-02-23T19:32:54.172Z,11.23
2023-02-23T19:35:21.474Z,10.92
2023-02-23T19:37:49.524Z,10.00
2023-02-23T19:40:19.858Z,10.90
2023-02-23T19:42:50.530Z,11.18
2023-02-23T19:45:17.980Z,10.96
2023-02-23T19:47:46.220Z,11.14
2023-02-23T19:50:13.833Z,10.77
2023-02-23T19:52:40.716Z,11.12
2023-02-23T19:55:08.084Z,11.04
2023-02-23T19:57:35.104Z,11.09
2023-02-23T20:00:01.859Z,10.99
2023-02-23T20:02:28.687Z,10.91
2023-02-23T20:04:55.612Z,11.03
2023-02-23T20:07:22.385Z,10.91
2023-02-23T20:09:49.186Z,10.93
2023-02-23T20:12:16.115Z,10.48
2023-02-23T20:14:43.831Z,10.55
2023-02-23T20:17:10.752Z,10.66
2023-02-23T20:19:37.542Z,10.93
2023-02-23T20:22:04.358Z,10.92
2023-02-23T20:24:31.148Z,10.55
2023-02-23T20:26:59.445Z,10.54
2023-02-23T20:29:28.233Z,10.84
2023-02-23T20:31:55.119Z,10.20
2023-02-23T20:34:24.372Z,10.44
2023-02-23T20:36:51.878Z,10.39
2023-02-23T20:39:19.260Z,10.55
2023-02-23T20:41:47.988Z,10.64
2023-02-23T20:44:15.709Z,10.37
2023-02-23T20:46:43.028Z,10.42
2023-02-23T20:49:13.150Z,10.26
2023-02-23T20:51:43.838Z,10.11
2023-02-23T20:54:11.286Z,10.55
2023-02-23T20:56:41.078Z,10.11
2023-02-23T20:59:11.379Z,10.23
2023-02-23T21:01:42.065Z,9.89
2023-02-23T21:04:09.004Z,9.88
2023-02-23T21:06:35.837Z,9.77
2023-02-23T21:09:05.595Z,10.41
2023-02-23T21:11:32.466Z,9.89
2023-02-23T21:13:59.540Z,9.96
2023-02-23T21:16:26.627Z,9.87
2023-02-23T21:19:04.254Z,9.93
2023-02-23T21:21:38.933Z,10.08
2023-02-23T21:24:06.016Z,9.91
2023-02-23T21:26:32.824Z,10.13
2023-02-23T21:28:59.758Z,10.04
2023-02-23T21:31:26.757Z,10.08
2023-02-23T21:33:53.812Z,10.05
2023-02-23T21:36:20.800Z,10.04
2023-02-23T21:38:47.647Z,9.85
2023-02-23T21:41:15.114Z,9.83
2023-02-23T21:43:43.144Z,9.77
2023-02-23T21:46:14.524Z,10.00
2023-02-23T21:48:41.775Z,9.78
2023-02-23T21:51:11.758Z,9.88
2023-02-23T21:53:38.473Z,9.94
2023-02-23T21:56:13.662Z,9.77
2023-02-23T21:58:46.976Z,9.95
2023-02-23T22:01:18.256Z,9.96
2023-02-23T22:03:45.487Z,9.61
2023-02-23T22:06:13.514Z,9.93
2023-02-23T22:08:40.440Z,9.86
2023-02-23T22:11:08.923Z,9.99
2023-02-23T22:13:35.810Z,9.99
2023-02-23T22:16:03.319Z,9.99
2023-02-23T22:18:30.212Z,9.79
2023-02-23T22:21:01.771Z,9.87
2023-02-23T22:23:28.654Z,9.99
2023-02-23T22:25:55.504Z,9.41
2023-02-23T22:28:22.316Z,9.67
2023-02-23T22:30:51.271Z,9.88
2023-02-23T22:33:24.228Z,10.00
2023-02-23T22:35:51.279Z,9.80
2023-02-23T22:38:20.843Z,9.65
2023-02-23T22:40:47.984Z,9.79
2023-02-23T22:43:17.618Z,9.58
2023-02-23T22:45:44.492Z,9.95
2023-02-23T22:48:11.326Z,9.65
2023-02-23T22:50:38.283Z,9.93
2023-02-23T22:53:06.004Z,9.93
2023-02-23T22:55:34.021Z,9.51
2023-02-23T22:58:01.297Z,9.92
2023-02-23T23:00:29.114Z,9.64
2023-02-23T23:02:56.003Z,9.68
2023-02-23T23:05:22.901Z,9.18
2023-02-23T23:07:49.771Z,9.85
2023-02-23T23:10:17.696Z,9.35
2023-02-23T23:12:44.775Z,9.70
2023-02-23T23:15:15.037Z,9.49
2023-02-23T23:17:51.426Z,9.59
2023-02-23T23:20:22.909Z,8.83
2023-02-23T23:22:50.077Z,9.19
2023-02-23T23:25:23.322Z,9.29
2023-02-23T23:27:53.328Z,9.20
2023-02-23T23:30:29.394Z,9.40
2023-02-23T23:32:57.414Z,9.14
2023-02-23T23:35:26.125Z,9.17
2023-02-23T23:37:53.093Z,9.34
2023-02-23T23:40:24.584Z,9.31
2023-02-23T23:42:51.552Z,9.34
2023-02-23T23:45:19.077Z,9.22
2023-02-23T23:47:46.191Z,9.04
2023-02-23T23:50:13.748Z,9.12
2023-02-23T23:52:43.640Z,9.41
2023-02-23T23:55:14.894Z,9.40
2023-02-23T23:57:42.039Z,9.40
